createdAt,value
2022-08-22T00:01:59.545Z,6.83
2022-08-22T00:02:53.747Z,6.30
2022-08-22T00:03:06.412Z,6.73
2022-08-22T00:04:51.496Z,5.90
2022-08-22T00:07:38.884Z,6.93
2022-08-22T00:10:25.598Z,5.67
2022-08-22T00:13:03.899Z,5.13
2022-08-22T00:15:43.585Z,5.33
2022-08-22T00:18:37.495Z,7.57
2022-08-22T00:21:10.481Z,5.13
2022-08-22T00:23:43.129Z,5.80
2022-08-22T00:26:42.177Z,4.20
2022-08-22T00:29:17.126Z,6.97
2022-08-22T00:31:51.494Z,5.00
2022-08-22T00:34:26.447Z,5.00
2022-08-22T00:37:15.311Z,5.27
2022-08-22T00:39:56.295Z,5.00
2022-08-22T00:42:58.359Z,7.37
2022-08-22T00:45:58.634Z,4.57
2022-08-22T00:48:43.531Z,5.90
2022-08-22T00:51:23.059Z,5.83
2022-08-22T00:54:18.023Z,5.57
2022-08-22T00:56:57.165Z,6.20
2022-08-22T00:59:56.625Z,7.93
2022-08-22T01:02:32.118Z,5.37
2022-08-22T01:04:58.848Z,5.80
2022-08-22T01:07:43.911Z,5.13
2022-08-22T01:10:30.955Z,4.27
2022-08-22T01:13:24.699Z,6.57
2022-08-22T01:16:04.838Z,6.13
2022-08-22T01:19:00.271Z,4.83
2022-08-22T01:21:51.146Z,3.87
2022-08-22T01:24:24.253Z,5.30
2022-08-22T01:27:10.652Z,6.20
2022-08-22T01:30:07.358Z,8.70
2022-08-22T01:33:01.133Z,4.57
2022-08-22T01:35:48.224Z,5.63
2022-08-22T01:38:50.616Z,4.60
2022-08-22T01:41:40.631Z,6.87
2022-08-22T01:44:10.499Z,5.80
2022-08-22T01:47:03.735Z,4.60
2022-08-22T01:49:33.550Z,5.53
2022-08-22T01:52:16.045Z,6.40
2022-08-22T01:55:21.403Z,8.37
2022-08-22T01:58:01.127Z,5.67
2022-08-22T02:00:35.556Z,6.13
2022-08-22T02:03:23.505Z,5.43
2022-08-22T02:06:14.529Z,5.90
2022-08-22T02:08:50.656Z,5.97
2022-08-22T02:11:55.435Z,4.43
2022-08-22T02:14:32.707Z,4.90
2022-08-22T02:17:25.802Z,4.50
2022-08-22T02:19:59.993Z,5.80
2022-08-22T02:22:31.788Z,5.13
2022-08-22T02:25:11.299Z,5.90
2022-08-22T02:28:06.843Z,6.83
2022-08-22T02:30:48.083Z,6.30
2022-08-22T02:33:47.721Z,5.73
2022-08-22T02:36:46.641Z,5.90
2022-08-22T02:39:25.760Z,5.83
2022-08-22T02:42:24.635Z,7.63
2022-08-22T02:45:15.694Z,4.67
2022-08-22T02:47:50.183Z,6.87
2022-08-22T02:50:17.521Z,6.53
2022-08-22T02:52:56.445Z,5.67
2022-08-22T02:55:38.943Z,6.87
2022-08-22T02:58:08.403Z,6.63
2022-08-22T03:00:50.748Z,6.60
2022-08-22T03:03:27.375Z,5.13
2022-08-22T03:06:02.060Z,6.93
2022-08-22T03:08:42.956Z,7.70
2022-08-22T03:11:26.325Z,7.87
2022-08-22T03:14:10.792Z,7.23
2022-08-22T03:16:43.662Z,5.83
2022-08-22T03:19:22.323Z,6.50
2022-08-22T03:21:52.116Z,6.23
2022-08-22T03:24:28.012Z,6.43
2022-08-22T03:27:31.420Z,7.37
2022-08-22T03:30:10.934Z,7.00
2022-08-22T03:32:50.194Z,7.43
2022-08-22T03:35:39.111Z,7.63
2022-08-22T03:38:23.701Z,4.63
2022-08-22T03:40:54.007Z,7.73
2022-08-22T03:43:42.384Z,8.23
2022-08-22T03:46:27.079Z,6.73
2022-08-22T03:49:28.270Z,6.33
2022-08-22T03:51:54.984Z,5.90
2022-08-22T03:54:49.562Z,6.53
2022-08-22T03:58:00.505Z,6.00
2022-08-22T04:01:13.833Z,7.33
2022-08-22T04:03:46.620Z,5.17
2022-08-22T04:06:31.525Z,6.90
2022-08-22T04:09:35.684Z,7.27
2022-08-22T04:12:34.520Z,6.17
2022-08-22T04:15:04.357Z,9.37
2022-08-22T04:17:31.434Z,6.63
2022-08-22T04:20:07.820Z,6.60
2022-08-22T04:23:11.995Z,6.23
2022-08-22T04:25:42.228Z,6.60
2022-08-22T04:28:43.827Z,8.90
2022-08-22T04:31:17.733Z,8.87
2022-08-22T04:34:07.181Z,8.97
2022-08-22T04:36:46.043Z,9.13
2022-08-22T04:39:21.147Z,8.43
2022-08-22T04:42:06.955Z,7.37
2022-08-22T04:45:08.094Z,6.13
2022-08-22T04:48:03.271Z,7.73
2022-08-22T04:50:50.942Z,6.43
2022-08-22T04:53:39.159Z,8.50
2022-08-22T04:56:32.934Z,8.07
2022-08-22T04:59:10.796Z,8.40
2022-08-22T05:01:37.639Z,8.50
2022-08-22T05:04:22.028Z,8.13
2022-08-22T05:06:53.667Z,10.33
2022-08-22T05:09:27.560Z,7.97
2022-08-22T05:11:59.369Z,8.67
2022-08-22T05:14:38.334Z,9.00
2022-08-22T05:17:10.528Z,9.30
2022-08-22T05:19:40.386Z,5.30
2022-08-22T05:22:18.796Z,6.83
2022-08-22T05:24:53.675Z,8.77
2022-08-22T05:27:29.210Z,6.27
2022-08-22T05:30:03.799Z,6.70
2022-08-22T05:32:50.324Z,6.40
2022-08-22T05:35:20.241Z,5.37
2022-08-22T05:37:51.878Z,9.53
2022-08-22T05:40:25.063Z,8.23
2022-08-22T05:42:53.650Z,9.73
2022-08-22T05:45:22.766Z,9.17
2022-08-22T05:48:16.178Z,11.43
2022-08-22T05:50:50.941Z,8.50
2022-08-22T05:53:30.678Z,8.57
2022-08-22T05:56:03.372Z,9.23
2022-08-22T05:58:30.118Z,10.03
2022-08-22T06:01:34.772Z,8.23
2022-08-22T06:04:30.089Z,10.83
2022-08-22T06:07:04.794Z,13.83
2022-08-22T06:09:46.336Z,11.43
2022-08-22T06:12:21.892Z,10.07
2022-08-22T06:14:56.801Z,13.43
2022-08-22T06:17:31.215Z,12.77
2022-08-22T06:20:00.158Z,13.77
2022-08-22T06:22:31.098Z,10.90
2022-08-22T06:25:06.573Z,12.00
2022-08-22T06:27:34.708Z,11.30
2022-08-22T06:30:04.082Z,15.83
2022-08-22T06:32:59.002Z,12.37
2022-08-22T06:36:02.293Z,12.70
2022-08-22T06:38:33.571Z,12.73
2022-08-22T06:41:07.087Z,12.60
2022-08-22T06:43:39.264Z,12.43
2022-08-22T06:46:07.511Z,9.90
2022-08-22T06:48:36.287Z,13.20
2022-08-22T06:51:07.022Z,11.07
2022-08-22T06:53:45.886Z,14.20
2022-08-22T06:56:21.753Z,11.57
2022-08-22T06:58:54.505Z,12.23
2022-08-22T07:01:29.408Z,12.10
2022-08-22T07:04:06.122Z,11.57
2022-08-22T07:06:46.332Z,9.77
2022-08-22T07:09:35.567Z,9.67
2022-08-22T07:12:10.960Z,13.77
2022-08-22T07:14:44.204Z,11.37
2022-08-22T07:17:25.443Z,13.57
2022-08-22T07:20:08.143Z,12.87
2022-08-22T07:22:37.465Z,10.27
2022-08-22T07:25:09.314Z,12.27
2022-08-22T07:28:00.257Z,14.00
2022-08-22T07:30:39.748Z,12.30
2022-08-22T07:33:28.073Z,10.23
2022-08-22T07:36:01.733Z,9.63
2022-08-22T07:38:43.914Z,10.50
2022-08-22T07:41:51.607Z,10.73
2022-08-22T07:44:25.448Z,12.93
2022-08-22T07:47:12.161Z,11.90
2022-08-22T07:49:50.739Z,10.80
2022-08-22T07:52:18.975Z,7.10
2022-08-22T07:54:48.621Z,11.60
2022-08-22T07:57:24.601Z,10.83
2022-08-22T07:59:54.976Z,11.63
2022-08-22T08:02:23.791Z,9.73
2022-08-22T08:04:55.046Z,9.70
2022-08-22T08:07:26.631Z,12.53
2022-08-22T08:10:03.537Z,10.43
2022-08-22T08:12:44.430Z,11.20
2022-08-22T08:15:25.678Z,8.00
2022-08-22T08:18:00.472Z,10.13
2022-08-22T08:20:29.684Z,13.40
2022-08-22T08:22:58.097Z,10.07
2022-08-22T08:25:30.467Z,9.87
2022-08-22T08:28:19.373Z,12.87
2022-08-22T08:31:00.082Z,11.13
2022-08-22T08:33:29.249Z,11.83
2022-08-22T08:36:28.407Z,9.07
2022-08-22T08:39:14.369Z,11.27
2022-08-22T08:42:08.389Z,9.47
2022-08-22T08:44:54.704Z,9.90
2022-08-22T08:47:30.087Z,11.17
2022-08-22T08:50:16.947Z,7.60
2022-08-22T08:53:23.952Z,9.20
2022-08-22T08:56:04.333Z,10.20
2022-08-22T08:58:33.871Z,10.63
2022-08-22T09:01:17.026Z,10.70
2022-08-22T09:03:58.554Z,8.07
2022-08-22T09:06:42.525Z,11.23
2022-08-22T09:09:36.016Z,7.60
2022-08-22T09:12:22.257Z,9.23
2022-08-22T09:15:19.955Z,11.70
2022-08-22T09:18:44.279Z,11.83
2022-08-22T09:21:30.442Z,10.87
2022-08-22T09:24:35.827Z,6.97
2022-08-22T09:27:11.509Z,9.40
2022-08-22T09:29:54.466Z,6.13
2022-08-22T09:33:04.238Z,7.80
2022-08-22T09:35:45.788Z,8.10
2022-08-22T09:38:18.956Z,7.27
2022-08-22T09:41:04.332Z,7.27
2022-08-22T09:43:44.738Z,8.70
2022-08-22T09:46:47.668Z,8.43
2022-08-22T09:49:20.613Z,7.97
2022-08-22T09:52:15.202Z,8.50
2022-08-22T09:55:02.423Z,7.20
2022-08-22T09:57:46.553Z,8.77
2022-08-22T10:00:14.282Z,6.40
2022-08-22T10:02:55.796Z,10.40
2022-08-22T10:05:59.370Z,6.37
2022-08-22T10:08:45.814Z,8.57
2022-08-22T10:11:19.691Z,10.67
2022-08-22T10:14:08.433Z,5.17
2022-08-22T10:16:47.173Z,7.83
2022-08-22T10:19:18.065Z,7.47
2022-08-22T10:21:48.060Z,7.20
2022-08-22T10:24:44.070Z,8.27
2022-08-22T10:27:36.517Z,8.27
2022-08-22T10:30:13.291Z,8.57
2022-08-22T10:32:52.664Z,6.03
2022-08-22T10:35:25.763Z,7.07
2022-08-22T10:38:14.315Z,6.77
2022-08-22T10:40:58.164Z,5.93
2022-08-22T10:43:28.971Z,6.10
2022-08-22T10:46:12.679Z,6.77
2022-08-22T10:48:57.320Z,5.03
2022-08-22T10:51:42.762Z,7.40
2022-08-22T10:54:24.672Z,6.83
2022-08-22T10:57:14.965Z,7.55
2022-08-22T11:00:02.256Z,6.70
2022-08-22T11:02:45.006Z,6.07
2022-08-22T11:05:23.851Z,7.68
2022-08-22T11:08:11.539Z,10.27
2022-08-22T11:10:59.544Z,8.45
2022-08-22T11:13:58.699Z,8.90
2022-08-22T11:16:48.844Z,7.43
2022-08-22T11:19:31.093Z,5.88
2022-08-22T11:22:23.983Z,7.72
2022-08-22T11:25:13.427Z,7.75
2022-08-22T11:27:55.457Z,10.55
2022-08-22T11:30:36.363Z,6.67
2022-08-22T11:33:14.197Z,9.30
2022-08-22T11:36:11.311Z,6.70
2022-08-22T11:39:01.309Z,7.90
2022-08-22T11:41:58.341Z,6.38
2022-08-22T11:44:31.330Z,5.50
2022-08-22T11:47:02.781Z,4.82
2022-08-22T11:50:00.020Z,4.85
2022-08-22T11:52:38.603Z,6.82
2022-08-22T11:55:33.191Z,3.50
2022-08-22T11:58:07.265Z,4.65
2022-08-22T12:00:40.775Z,5.60
2022-08-22T12:03:39.861Z,4.95
2022-08-22T12:06:40.426Z,2.65
2022-08-22T12:09:38.536Z,2.30
2022-08-22T12:12:24.285Z,3.67
2022-08-22T12:15:03.555Z,5.38
2022-08-22T12:17:54.976Z,3.83
2022-08-22T12:20:48.315Z,4.60
2022-08-22T12:23:49.306Z,2.40
2022-08-22T12:26:50.562Z,3.03
2022-08-22T12:29:39.970Z,3.75
2022-08-22T12:32:27.778Z,4.05
2022-08-22T12:35:30.367Z,2.28
2022-08-22T12:38:28.102Z,2.85
2022-08-22T12:41:34.970Z,1.20
2022-08-22T12:44:17.115Z,1.88
2022-08-22T12:47:09.234Z,2.60
2022-08-22T12:49:52.432Z,4.65
2022-08-22T12:52:28.727Z,1.13
2022-08-22T12:55:04.575Z,2.45
2022-08-22T12:57:43.570Z,3.03
2022-08-22T13:00:26.880Z,1.30
2022-08-22T13:02:59.473Z,2.08
2022-08-22T13:05:29.224Z,2.95
2022-08-22T13:08:04.563Z,3.10
2022-08-22T13:10:44.796Z,5.68
2022-08-22T13:13:31.669Z,3.33
2022-08-22T13:16:08.370Z,2.15
2022-08-22T13:18:53.798Z,2.22
2022-08-22T13:21:27.576Z,5.78
2022-08-22T13:24:38.441Z,3.42
2022-08-22T13:27:14.955Z,3.47
2022-08-22T13:29:50.743Z,2.05
2022-08-22T13:32:27.752Z,4.40
2022-08-22T13:34:57.870Z,1.52
2022-08-22T13:37:35.723Z,2.97
2022-08-22T13:40:07.686Z,2.17
2022-08-22T13:42:43.639Z,2.38
2022-08-22T13:45:21.979Z,2.80
2022-08-22T13:47:55.580Z,3.88
2022-08-22T13:50:28.574Z,5.03
2022-08-22T13:53:11.259Z,2.55
2022-08-22T13:55:58.814Z,1.67
2022-08-22T13:58:45.127Z,2.33
2022-08-22T14:01:33.371Z,3.58
2022-08-22T14:04:31.939Z,2.88
2022-08-22T14:07:03.379Z,2.22
2022-08-22T14:09:51.309Z,3.75
2022-08-22T14:12:27.604Z,3.07
2022-08-22T14:15:04.518Z,3.20
2022-08-22T14:17:42.999Z,4.10
2022-08-22T14:20:32.569Z,4.43
2022-08-22T14:23:11.911Z,4.53
2022-08-22T14:25:43.185Z,4.67
2022-08-22T14:28:36.761Z,7.70
2022-08-22T14:31:13.479Z,3.83
2022-08-22T14:33:50.088Z,2.17
2022-08-22T14:36:23.135Z,3.07
2022-08-22T14:39:13.124Z,2.93
2022-08-22T14:41:58.665Z,3.30
2022-08-22T14:44:48.410Z,2.33
2022-08-22T14:47:54.481Z,2.13
2022-08-22T14:50:36.003Z,2.80
2022-08-22T14:53:09.664Z,5.78
2022-08-22T14:55:39.454Z,2.95
2022-08-22T14:58:18.280Z,4.00
2022-08-22T15:00:56.286Z,2.90
2022-08-22T15:03:26.106Z,4.07
2022-08-22T15:05:55.245Z,2.03
2022-08-22T15:08:30.435Z,3.67
2022-08-22T15:11:20.340Z,3.33
2022-08-22T15:14:00.229Z,3.37
2022-08-22T15:16:36.157Z,3.63
2022-08-22T15:19:20.560Z,2.90
2022-08-22T15:21:47.880Z,4.00
2022-08-22T15:24:16.092Z,3.23
2022-08-22T15:26:55.358Z,3.27
2022-08-22T15:29:31.100Z,5.17
2022-08-22T15:32:02.348Z,4.30
2022-08-22T15:34:38.206Z,3.50
2022-08-22T15:37:25.649Z,3.57
2022-08-22T15:40:31.059Z,4.73
2022-08-22T15:42:58.937Z,5.43
2022-08-22T15:45:36.079Z,4.93
2022-08-22T15:48:09.606Z,3.53
2022-08-22T15:51:00.160Z,3.10
2022-08-22T15:53:53.474Z,2.20
2022-08-22T15:56:28.053Z,3.47
2022-08-22T15:59:53.939Z,4.43
2022-08-22T16:02:53.360Z,4.17
2022-08-22T16:05:36.117Z,3.87
2022-08-22T16:08:16.927Z,5.77
2022-08-22T16:10:50.403Z,3.05
2022-08-22T16:13:26.296Z,3.60
2022-08-22T16:16:12.045Z,3.57
2022-08-22T16:18:42.697Z,7.93
2022-08-22T16:21:37.678Z,6.43
2022-08-22T16:24:04.438Z,3.23
2022-08-22T16:26:31.225Z,3.10
2022-08-22T16:29:06.891Z,4.43
2022-08-22T16:31:57.447Z,4.50
2022-08-22T16:34:27.665Z,6.33
2022-08-22T16:37:03.676Z,3.37
2022-08-22T16:39:41.583Z,4.03
2022-08-22T16:42:23.133Z,2.60
2022-08-22T16:45:05.441Z,7.40
2022-08-22T16:47:41.750Z,3.67
2022-08-22T16:50:18.390Z,3.00
2022-08-22T16:53:10.434Z,5.63
2022-08-22T16:55:48.046Z,3.27
2022-08-22T16:58:58.902Z,4.00
2022-08-22T17:01:49.323Z,4.70
2022-08-22T17:04:34.415Z,4.50
2022-08-22T17:07:32.184Z,3.47
2022-08-22T17:10:25.794Z,3.00
2022-08-22T17:13:02.411Z,7.67
2022-08-22T17:15:44.799Z,3.90
2022-08-22T17:18:23.680Z,5.27
2022-08-22T17:21:13.265Z,5.47
2022-08-22T17:24:33.365Z,5.80
2022-08-22T17:27:16.513Z,4.60
2022-08-22T17:30:14.573Z,2.70
2022-08-22T17:33:04.496Z,6.87
2022-08-22T17:35:55.465Z,4.93
2022-08-22T17:38:27.683Z,4.70
2022-08-22T17:41:25.018Z,4.90
2022-08-22T17:44:25.297Z,3.80
2022-08-22T17:46:57.824Z,6.33
2022-08-22T17:49:50.503Z,6.03
2022-08-22T17:52:30.284Z,8.27
2022-08-22T17:55:13.312Z,5.80
2022-08-22T17:58:09.285Z,11.17
2022-08-22T18:00:42.551Z,6.07
2022-08-22T18:03:31.778Z,6.47
2022-08-22T18:06:15.851Z,3.40
2022-08-22T18:11:52.113Z,6.13
2022-08-22T18:14:49.179Z,6.03
2022-08-22T18:17:33.013Z,5.30
2022-08-22T18:20:13.409Z,6.77
2022-08-22T18:22:43.618Z,6.37
2022-08-22T18:25:19.470Z,4.47
2022-08-22T18:27:52.236Z,3.73
2022-08-22T18:30:23.209Z,4.17
2022-08-22T18:33:00.782Z,4.53
2022-08-22T18:35:39.081Z,6.87
2022-08-22T18:38:41.098Z,4.93
2022-08-22T18:41:26.554Z,4.50
2022-08-22T18:43:54.250Z,3.27
2022-08-22T18:46:38.389Z,5.53
2022-08-22T18:49:32.167Z,4.90
2022-08-22T18:52:18.043Z,4.00
2022-08-22T18:55:03.666Z,5.23
2022-08-22T18:57:42.954Z,3.03
2022-08-22T19:00:45.655Z,4.47
2022-08-22T19:03:21.414Z,3.37
2022-08-22T19:06:23.510Z,5.07
2022-08-22T19:09:02.376Z,4.20
2022-08-22T19:11:51.023Z,2.80
2022-08-22T19:14:30.152Z,3.83
2022-08-22T19:17:35.696Z,4.53
2022-08-22T19:20:44.910Z,5.63
2022-08-22T19:23:37.099Z,2.47
2022-08-22T19:26:25.827Z,7.67
2022-08-22T19:29:25.961Z,3.60
2022-08-22T19:31:59.188Z,3.70
2022-08-22T19:34:30.396Z,5.47
2022-08-22T19:37:32.997Z,4.80
2022-08-22T19:40:10.124Z,4.43
2022-08-22T19:42:39.709Z,5.23
2022-08-22T19:45:19.723Z,3.13
2022-08-22T19:47:57.193Z,4.93
2022-08-22T19:50:28.229Z,4.43
2022-08-22T19:53:10.252Z,4.80
2022-08-22T19:55:37.245Z,5.40
2022-08-22T19:58:32.530Z,5.40
2022-08-22T20:01:04.287Z,4.77
2022-08-22T20:04:04.517Z,4.67
2022-08-22T20:06:55.538Z,5.63
2022-08-22T20:09:28.524Z,4.10
2022-08-22T20:12:18.607Z,7.37
2022-08-22T20:14:47.193Z,5.03
2022-08-22T20:17:26.372Z,4.97
2022-08-22T20:22:54.582Z,4.03
2022-08-22T20:25:43.061Z,3.10
2022-08-22T20:28:36.896Z,5.63
2022-08-22T20:31:10.732Z,6.73
2022-08-22T20:33:40.922Z,5.67
2022-08-22T20:36:16.680Z,5.93
2022-08-22T20:39:00.089Z,4.23
2022-08-22T20:41:40.503Z,5.00
2022-08-22T20:44:11.196Z,3.07
2022-08-22T20:47:23.272Z,5.17
2022-08-22T20:49:52.250Z,5.67
2022-08-22T20:52:34.433Z,3.80
2022-08-22T20:55:27.193Z,3.90
2022-08-22T20:58:34.093Z,4.13
2022-08-22T21:01:06.043Z,3.00
2022-08-22T21:03:49.264Z,4.97
2022-08-22T21:06:20.948Z,3.20
2022-08-22T21:09:12.567Z,2.83
2022-08-22T21:11:50.519Z,2.63
2022-08-22T21:14:22.731Z,2.87
2022-08-22T21:16:49.986Z,2.07
2022-08-22T21:19:19.773Z,6.17
2022-08-22T21:21:46.656Z,5.53
2022-08-22T21:24:13.490Z,3.30
2022-08-22T21:26:56.520Z,4.43
2022-08-22T21:29:32.751Z,5.07
2022-08-22T21:32:16.801Z,4.30
2022-08-22T21:34:46.629Z,4.47
2022-08-22T21:37:40.563Z,5.13
2022-08-22T21:40:42.200Z,2.43
2022-08-22T21:43:12.252Z,2.07
2022-08-22T21:45:39.041Z,4.10
2022-08-22T21:48:30.972Z,2.80
2022-08-22T21:51:41.154Z,3.77
2022-08-22T21:54:29.363Z,2.37
2022-08-22T21:57:10.422Z,2.40
2022-08-22T21:59:51.704Z,2.50
2022-08-22T22:02:37.570Z,3.57
2022-08-22T22:05:17.329Z,4.87
2022-08-22T22:07:46.698Z,2.73
2022-08-22T22:10:16.807Z,2.33
2022-08-22T22:12:46.168Z,2.73
2022-08-22T22:15:17.979Z,7.30
2022-08-22T22:17:45.103Z,2.80
2022-08-22T22:20:15.241Z,2.93
2022-08-22T22:22:45.909Z,2.80
2022-08-22T22:25:39.121Z,2.37
2022-08-22T22:28:22.732Z,4.03
2022-08-22T22:30:51.511Z,4.23
2022-08-22T22:33:20.572Z,2.83
2022-08-22T22:35:48.551Z,4.43
2022-08-22T22:38:18.411Z,1.97
2022-08-22T22:40:47.461Z,3.37
2022-08-22T22:43:14.632Z,3.00
2022-08-22T22:45:41.587Z,2.93
2022-08-22T22:48:08.968Z,2.87
2022-08-22T22:50:40.566Z,3.47
2022-08-22T22:53:11.034Z,2.30
2022-08-22T22:55:41.518Z,2.80
2022-08-22T22:58:09.023Z,2.80
2022-08-22T23:00:37.733Z,3.23
2022-08-22T23:03:06.668Z,2.93
2022-08-22T23:05:34.214Z,3.37
2022-08-22T23:08:02.166Z,3.63
2022-08-22T23:10:30.344Z,2.87
2022-08-22T23:12:57.684Z,4.67
2022-08-22T23:15:24.871Z,3.77
2022-08-22T23:17:51.782Z,3.13
2022-08-22T23:20:19.233Z,4.23
2022-08-22T23:22:46.171Z,3.87
2022-08-22T23:25:13.277Z,3.50
2022-08-22T23:27:40.414Z,2.57
2022-08-22T23:30:09.155Z,2.77
2022-08-22T23:32:37.045Z,2.63
2022-08-22T23:35:04.879Z,3.43
2022-08-22T23:37:31.673Z,2.90
2022-08-22T23:39:58.541Z,3.40
2022-08-22T23:42:25.664Z,4.27
2022-08-22T23:44:52.556Z,2.77
2022-08-22T23:47:19.327Z,4.77
2022-08-22T23:49:47.044Z,4.13
2022-08-22T23:52:14.026Z,3.00
2022-08-22T23:54:40.867Z,5.10
2022-08-22T23:57:11.940Z,2.90
2022-08-22T23:59:48.464Z,2.67
